sensor_id;sensor_type;location;lat;lon;timestamp;P1;durP1;ratioP1;P2;durP2;ratioP2
56331;SDS011;42237;53.340;6.812;2022-12-18T00:03:46;79.82;;;27.25;;
56331;SDS011;42237;53.340;6.812;2022-12-18T00:06:12;79.70;;;26.45;;
56331;SDS011;42237;53.340;6.812;2022-12-18T00:08:39;71.22;;;26.00;;
56331;SDS011;42237;53.340;6.812;2022-12-18T00:11:06;72.25;;;27.05;;
56331;SDS011;42237;53.340;6.812;2022-12-18T00:13:33;68.75;;;25.30;;
56331;SDS011;42237;53.340;6.812;2022-12-18T00:16:03;79.95;;;27.88;;
56331;SDS011;42237;53.340;6.812;2022-12-18T00:18:30;64.90;;;26.33;;
56331;SDS011;42237;53.340;6.812;2022-12-18T00:21:00;73.28;;;24.65;;
56331;SDS011;42237;53.340;6.812;2022-12-18T00:23:27;74.30;;;26.10;;
56331;SDS011;42237;53.340;6.812;2022-12-18T00:25:54;71.30;;;25.50;;
56331;SDS011;42237;53.340;6.812;2022-12-18T00:28:19;68.70;;;26.20;;
56331;SDS011;42237;53.340;6.812;2022-12-18T00:30:45;61.70;;;23.60;;
56331;SDS011;42237;53.340;6.812;2022-12-18T00:33:11;74.75;;;26.33;;
56331;SDS011;42237;53.340;6.812;2022-12-18T00:35:36;63.72;;;25.77;;
56331;SDS011;42237;53.340;6.812;2022-12-18T00:38:02;68.15;;;25.15;;
56331;SDS011;42237;53.340;6.812;2022-12-18T00:40:30;60.35;;;24.48;;
56331;SDS011;42237;53.340;6.812;2022-12-18T00:42:55;69.75;;;24.92;;
56331;SDS011;42237;53.340;6.812;2022-12-18T00:45:25;68.68;;;26.55;;
56331;SDS011;42237;53.340;6.812;2022-12-18T00:47:53;70.18;;;23.55;;
56331;SDS011;42237;53.340;6.812;2022-12-18T00:50:18;68.97;;;24.25;;
56331;SDS011;42237;53.340;6.812;2022-12-18T00:52:44;73.82;;;25.08;;
56331;SDS011;42237;53.340;6.812;2022-12-18T00:55:10;74.47;;;25.30;;
56331;SDS011;42237;53.340;6.812;2022-12-18T00:57:36;67.38;;;23.58;;
56331;SDS011;42237;53.340;6.812;2022-12-18T01:00:03;69.15;;;24.88;;
56331;SDS011;42237;53.340;6.812;2022-12-18T01:02:30;62.97;;;23.33;;
56331;SDS011;42237;53.340;6.812;2022-12-18T01:04:56;71.93;;;23.90;;
56331;SDS011;42237;53.340;6.812;2022-12-18T01:07:23;66.13;;;25.90;;
56331;SDS011;42237;53.340;6.812;2022-12-18T01:09:48;69.15;;;24.90;;
56331;SDS011;42237;53.340;6.812;2022-12-18T01:12:14;67.10;;;24.90;;
56331;SDS011;42237;53.340;6.812;2022-12-18T01:14:40;62.80;;;25.90;;
56331;SDS011;42237;53.340;6.812;2022-12-18T01:17:05;78.93;;;26.50;;
56331;SDS011;42237;53.340;6.812;2022-12-18T01:19:31;77.25;;;26.50;;
56331;SDS011;42237;53.340;6.812;2022-12-18T01:21:57;72.28;;;27.10;;
56331;SDS011;42237;53.340;6.812;2022-12-18T01:24:23;78.72;;;26.25;;
56331;SDS011;42237;53.340;6.812;2022-12-18T01:26:49;64.32;;;24.63;;
56331;SDS011;42237;53.340;6.812;2022-12-18T01:29:15;71.50;;;24.98;;
56331;SDS011;42237;53.340;6.812;2022-12-18T01:31:40;62.25;;;23.20;;
56331;SDS011;42237;53.340;6.812;2022-12-18T01:34:06;62.15;;;25.75;;
56331;SDS011;42237;53.340;6.812;2022-12-18T01:36:33;62.78;;;24.25;;
56331;SDS011;42237;53.340;6.812;2022-12-18T01:39:01;60.63;;;24.45;;
56331;SDS011;42237;53.340;6.812;2022-12-18T01:41:30;69.45;;;24.55;;
56331;SDS011;42237;53.340;6.812;2022-12-18T01:47:19;72.55;;;26.52;;
56331;SDS011;42237;53.340;6.812;2022-12-18T01:49:48;67.55;;;24.10;;
56331;SDS011;42237;53.340;6.812;2022-12-18T01:52:15;58.33;;;22.52;;
56331;SDS011;42237;53.340;6.812;2022-12-18T01:54:42;59.30;;;23.35;;
56331;SDS011;42237;53.340;6.812;2022-12-18T01:57:08;58.40;;;22.35;;
56331;SDS011;42237;53.340;6.812;2022-12-18T01:59:37;64.95;;;25.08;;
56331;SDS011;42237;53.340;6.812;2022-12-18T02:02:04;60.00;;;22.70;;
56331;SDS011;42237;53.340;6.812;2022-12-18T02:04:30;61.42;;;23.80;;
56331;SDS011;42237;53.340;6.812;2022-12-18T02:07:14;62.85;;;23.33;;
56331;SDS011;42237;53.340;6.812;2022-12-18T02:12:39;63.38;;;24.63;;
56331;SDS011;42237;53.340;6.812;2022-12-18T02:15:16;66.95;;;23.83;;
56331;SDS011;42237;53.340;6.812;2022-12-18T02:18:00;67.10;;;22.70;;
56331;SDS011;42237;53.340;6.812;2022-12-18T02:23:16;59.90;;;23.55;;
56331;SDS011;42237;53.340;6.812;2022-12-18T02:26:05;65.32;;;23.80;;
56331;SDS011;42237;53.340;6.812;2022-12-18T02:28:33;62.97;;;23.20;;
56331;SDS011;42237;53.340;6.812;2022-12-18T02:31:03;62.83;;;22.92;;
56331;SDS011;42237;53.340;6.812;2022-12-18T02:33:31;64.32;;;23.58;;
56331;SDS011;42237;53.340;6.812;2022-12-18T02:35:59;63.03;;;22.60;;
56331;SDS011;42237;53.340;6.812;2022-12-18T02:38:26;72.85;;;24.15;;
56331;SDS011;42237;53.340;6.812;2022-12-18T02:40:54;60.38;;;22.83;;
56331;SDS011;42237;53.340;6.812;2022-12-18T02:43:21;64.13;;;25.52;;
56331;SDS011;42237;53.340;6.812;2022-12-18T02:45:57;68.63;;;22.98;;
56331;SDS011;42237;53.340;6.812;2022-12-18T02:48:28;66.20;;;23.88;;
56331;SDS011;42237;53.340;6.812;2022-12-18T02:51:01;69.15;;;24.45;;
56331;SDS011;42237;53.340;6.812;2022-12-18T02:53:43;70.13;;;23.45;;
56331;SDS011;42237;53.340;6.812;2022-12-18T02:56:20;76.05;;;25.02;;
56331;SDS011;42237;53.340;6.812;2022-12-18T03:01:43;83.93;;;26.45;;
56331;SDS011;42237;53.340;6.812;2022-12-18T03:04:12;71.95;;;26.17;;
56331;SDS011;42237;53.340;6.812;2022-12-18T03:06:53;70.50;;;24.13;;
56331;SDS011;42237;53.340;6.812;2022-12-18T03:09:24;76.63;;;25.90;;
56331;SDS011;42237;53.340;6.812;2022-12-18T03:12:41;83.72;;;27.58;;
56331;SDS011;42237;53.340;6.812;2022-12-18T03:14:50;84.28;;;27.05;;
56331;SDS011;42237;53.340;6.812;2022-12-18T03:17:33;88.15;;;27.60;;
56331;SDS011;42237;53.340;6.812;2022-12-18T03:20:05;88.10;;;29.20;;
56331;SDS011;42237;53.340;6.812;2022-12-18T03:22:46;88.53;;;28.88;;
56331;SDS011;42237;53.340;6.812;2022-12-18T03:25:17;68.55;;;25.95;;
56331;SDS011;42237;53.340;6.812;2022-12-18T03:27:46;81.00;;;28.83;;
56331;SDS011;42237;53.340;6.812;2022-12-18T03:30:15;86.10;;;28.63;;
56331;SDS011;42237;53.340;6.812;2022-12-18T03:32:44;77.78;;;27.85;;
56331;SDS011;42237;53.340;6.812;2022-12-18T03:35:30;86.22;;;29.00;;
56331;SDS011;42237;53.340;6.812;2022-12-18T03:37:59;78.63;;;26.65;;
56331;SDS011;42237;53.340;6.812;2022-12-18T03:40:27;88.15;;;28.85;;
56331;SDS011;42237;53.340;6.812;2022-12-18T03:43:02;75.20;;;28.23;;
56331;SDS011;42237;53.340;6.812;2022-12-18T03:45:43;83.28;;;28.45;;
56331;SDS011;42237;53.340;6.812;2022-12-18T03:48:26;78.95;;;27.70;;
56331;SDS011;42237;53.340;6.812;2022-12-18T03:51:05;84.70;;;28.75;;
56331;SDS011;42237;53.340;6.812;2022-12-18T03:54:07;80.72;;;26.50;;
56331;SDS011;42237;53.340;6.812;2022-12-18T03:56:34;83.53;;;28.40;;
56331;SDS011;42237;53.340;6.812;2022-12-18T04:01:34;80.25;;;27.80;;
56331;SDS011;42237;53.340;6.812;2022-12-18T04:04:03;75.32;;;27.88;;
56331;SDS011;42237;53.340;6.812;2022-12-18T04:06:30;77.20;;;27.17;;
56331;SDS011;42237;53.340;6.812;2022-12-18T04:08:59;77.65;;;26.80;;
56331;SDS011;42237;53.340;6.812;2022-12-18T04:11:25;84.95;;;28.13;;
56331;SDS011;42237;53.340;6.812;2022-12-18T04:13:53;77.22;;;29.65;;
56331;SDS011;42237;53.340;6.812;2022-12-18T04:16:22;81.43;;;27.92;;
56331;SDS011;42237;53.340;6.812;2022-12-18T04:18:49;75.90;;;27.52;;
56331;SDS011;42237;53.340;6.812;2022-12-18T04:21:14;77.40;;;27.58;;
56331;SDS011;42237;53.340;6.812;2022-12-18T04:23:40;82.07;;;27.48;;
56331;SDS011;42237;53.340;6.812;2022-12-18T04:26:06;80.85;;;27.15;;
56331;SDS011;42237;53.340;6.812;2022-12-18T04:28:33;70.38;;;27.08;;
56331;SDS011;42237;53.340;6.812;2022-12-18T04:30:59;80.15;;;27.08;;
56331;SDS011;42237;53.340;6.812;2022-12-18T04:33:25;77.80;;;27.92;;
56331;SDS011;42237;53.340;6.812;2022-12-18T04:35:50;80.03;;;27.65;;
56331;SDS011;42237;53.340;6.812;2022-12-18T04:38:16;80.00;;;27.40;;
56331;SDS011;42237;53.340;6.812;2022-12-18T04:40:42;73.70;;;26.83;;
56331;SDS011;42237;53.340;6.812;2022-12-18T04:43:08;75.55;;;27.85;;
56331;SDS011;42237;53.340;6.812;2022-12-18T04:45:34;80.78;;;27.42;;
56331;SDS011;42237;53.340;6.812;2022-12-18T04:48:00;71.95;;;25.83;;
56331;SDS011;42237;53.340;6.812;2022-12-18T04:50:29;70.97;;;26.63;;
56331;SDS011;42237;53.340;6.812;2022-12-18T04:52:55;73.45;;;26.40;;
56331;SDS011;42237;53.340;6.812;2022-12-18T04:55:21;64.93;;;26.55;;
56331;SDS011;42237;53.340;6.812;2022-12-18T04:57:47;74.07;;;26.27;;
56331;SDS011;42237;53.340;6.812;2022-12-18T05:00:13;76.30;;;26.60;;
56331;SDS011;42237;53.340;6.812;2022-12-18T05:02:39;75.15;;;26.40;;
56331;SDS011;42237;53.340;6.812;2022-12-18T05:05:05;70.95;;;27.73;;
56331;SDS011;42237;53.340;6.812;2022-12-18T05:07:31;64.20;;;26.67;;
56331;SDS011;42237;53.340;6.812;2022-12-18T05:09:56;73.78;;;27.00;;
56331;SDS011;42237;53.340;6.812;2022-12-18T05:12:22;67.90;;;26.02;;
56331;SDS011;42237;53.340;6.812;2022-12-18T05:14:48;66.93;;;25.42;;
56331;SDS011;42237;53.340;6.812;2022-12-18T05:17:13;63.15;;;23.90;;
56331;SDS011;42237;53.340;6.812;2022-12-18T05:19:39;68.85;;;25.40;;
56331;SDS011;42237;53.340;6.812;2022-12-18T05:22:05;64.38;;;23.88;;
56331;SDS011;42237;53.340;6.812;2022-12-18T05:24:31;62.00;;;24.50;;
56331;SDS011;42237;53.340;6.812;2022-12-18T05:26:57;64.10;;;24.52;;
56331;SDS011;42237;53.340;6.812;2022-12-18T05:29:23;64.72;;;25.38;;
56331;SDS011;42237;53.340;6.812;2022-12-18T05:31:48;60.13;;;25.05;;
56331;SDS011;42237;53.340;6.812;2022-12-18T05:34:14;55.88;;;23.70;;
56331;SDS011;42237;53.340;6.812;2022-12-18T05:36:40;55.67;;;22.75;;
56331;SDS011;42237;53.340;6.812;2022-12-18T05:39:06;66.63;;;24.27;;
56331;SDS011;42237;53.340;6.812;2022-12-18T05:41:32;58.40;;;22.73;;
56331;SDS011;42237;53.340;6.812;2022-12-18T05:43:58;57.80;;;23.83;;
56331;SDS011;42237;53.340;6.812;2022-12-18T05:46:24;59.88;;;21.67;;
56331;SDS011;42237;53.340;6.812;2022-12-18T05:48:49;68.47;;;23.63;;
56331;SDS011;42237;53.340;6.812;2022-12-18T05:51:16;52.13;;;21.98;;
56331;SDS011;42237;53.340;6.812;2022-12-18T05:53:44;63.53;;;22.58;;
56331;SDS011;42237;53.340;6.812;2022-12-18T05:56:11;49.15;;;22.63;;
56331;SDS011;42237;53.340;6.812;2022-12-18T05:58:41;56.85;;;22.60;;
56331;SDS011;42237;53.340;6.812;2022-12-18T06:01:08;48.80;;;19.75;;
56331;SDS011;42237;53.340;6.812;2022-12-18T06:03:36;56.22;;;21.70;;
56331;SDS011;42237;53.340;6.812;2022-12-18T06:06:02;53.20;;;21.45;;
56331;SDS011;42237;53.340;6.812;2022-12-18T06:08:27;51.45;;;20.83;;
56331;SDS011;42237;53.340;6.812;2022-12-18T06:10:53;55.47;;;20.83;;
56331;SDS011;42237;53.340;6.812;2022-12-18T06:13:24;51.33;;;21.20;;
56331;SDS011;42237;53.340;6.812;2022-12-18T06:15:53;85.32;;;34.28;;
56331;SDS011;42237;53.340;6.812;2022-12-18T06:18:18;76.25;;;31.15;;
56331;SDS011;42237;53.340;6.812;2022-12-18T06:20:53;66.68;;;29.70;;
56331;SDS011;42237;53.340;6.812;2022-12-18T06:23:20;58.08;;;22.70;;
56331;SDS011;42237;53.340;6.812;2022-12-18T06:25:49;59.88;;;27.73;;
56331;SDS011;42237;53.340;6.812;2022-12-18T06:28:15;48.17;;;22.63;;
56331;SDS011;42237;53.340;6.812;2022-12-18T06:30:43;45.72;;;19.33;;
56331;SDS011;42237;53.340;6.812;2022-12-18T06:33:15;94.55;;;52.50;;
56331;SDS011;42237;53.340;6.812;2022-12-18T06:35:43;59.67;;;28.35;;
56331;SDS011;42237;53.340;6.812;2022-12-18T06:38:13;53.05;;;27.15;;
56331;SDS011;42237;53.340;6.812;2022-12-18T06:40:41;73.28;;;43.88;;
56331;SDS011;42237;53.340;6.812;2022-12-18T06:43:06;56.25;;;30.58;;
56331;SDS011;42237;53.340;6.812;2022-12-18T06:45:35;49.95;;;23.02;;
56331;SDS011;42237;53.340;6.812;2022-12-18T06:48:19;55.40;;;32.55;;
56331;SDS011;42237;53.340;6.812;2022-12-18T06:50:51;55.35;;;28.50;;
56331;SDS011;42237;53.340;6.812;2022-12-18T06:53:39;57.15;;;27.75;;
56331;SDS011;42237;53.340;6.812;2022-12-18T06:56:32;44.05;;;23.17;;
56331;SDS011;42237;53.340;6.812;2022-12-18T06:59:20;46.05;;;19.85;;
56331;SDS011;42237;53.340;6.812;2022-12-18T07:02:18;46.90;;;19.33;;
56331;SDS011;42237;53.340;6.812;2022-12-18T07:05:01;38.78;;;19.10;;
56331;SDS011;42237;53.340;6.812;2022-12-18T07:07:27;46.38;;;18.58;;
56331;SDS011;42237;53.340;6.812;2022-12-18T07:09:55;38.35;;;17.77;;
56331;SDS011;42237;53.340;6.812;2022-12-18T07:12:29;43.25;;;18.90;;
56331;SDS011;42237;53.340;6.812;2022-12-18T07:14:54;47.20;;;19.58;;
56331;SDS011;42237;53.340;6.812;2022-12-18T07:17:20;41.65;;;18.38;;
56331;SDS011;42237;53.340;6.812;2022-12-18T07:19:56;44.05;;;18.08;;
56331;SDS011;42237;53.340;6.812;2022-12-18T07:22:29;45.63;;;19.05;;
56331;SDS011;42237;53.340;6.812;2022-12-18T07:24:54;41.97;;;19.25;;
56331;SDS011;42237;53.340;6.812;2022-12-18T07:27:28;48.83;;;18.65;;
56331;SDS011;42237;53.340;6.812;2022-12-18T07:29:54;46.95;;;18.92;;
56331;SDS011;42237;53.340;6.812;2022-12-18T07:32:41;41.33;;;18.70;;
56331;SDS011;42237;53.340;6.812;2022-12-18T07:35:13;40.47;;;18.65;;
56331;SDS011;42237;53.340;6.812;2022-12-18T07:38:07;38.75;;;18.63;;
56331;SDS011;42237;53.340;6.812;2022-12-18T07:41:09;75.05;;;35.42;;
56331;SDS011;42237;53.340;6.812;2022-12-18T07:43:54;38.60;;;17.50;;
56331;SDS011;42237;53.340;6.812;2022-12-18T07:46:30;38.17;;;15.80;;
56331;SDS011;42237;53.340;6.812;2022-12-18T07:49:01;37.15;;;17.45;;
56331;SDS011;42237;53.340;6.812;2022-12-18T07:52:04;41.85;;;17.70;;
56331;SDS011;42237;53.340;6.812;2022-12-18T07:54:42;39.63;;;18.40;;
56331;SDS011;42237;53.340;6.812;2022-12-18T07:57:18;47.33;;;18.73;;
56331;SDS011;42237;53.340;6.812;2022-12-18T08:00:02;37.13;;;16.50;;
56331;SDS011;42237;53.340;6.812;2022-12-18T08:02:58;43.22;;;22.27;;
56331;SDS011;42237;53.340;6.812;2022-12-18T08:05:34;41.38;;;18.38;;
56331;SDS011;42237;53.340;6.812;2022-12-18T08:08:28;42.80;;;18.35;;
56331;SDS011;42237;53.340;6.812;2022-12-18T08:11:06;33.67;;;16.70;;
56331;SDS011;42237;53.340;6.812;2022-12-18T08:13:32;36.90;;;16.83;;
56331;SDS011;42237;53.340;6.812;2022-12-18T08:15:58;37.30;;;15.90;;
56331;SDS011;42237;53.340;6.812;2022-12-18T08:18:27;40.13;;;18.15;;
56331;SDS011;42237;53.340;6.812;2022-12-18T08:20:52;37.78;;;16.75;;
56331;SDS011;42237;53.340;6.812;2022-12-18T08:23:18;36.80;;;16.13;;
56331;SDS011;42237;53.340;6.812;2022-12-18T08:25:44;37.33;;;17.85;;
56331;SDS011;42237;53.340;6.812;2022-12-18T08:28:10;36.15;;;16.70;;
56331;SDS011;42237;53.340;6.812;2022-12-18T08:30:36;40.45;;;20.42;;
56331;SDS011;42237;53.340;6.812;2022-12-18T08:33:01;35.70;;;16.92;;
56331;SDS011;42237;53.340;6.812;2022-12-18T08:35:27;36.33;;;17.65;;
56331;SDS011;42237;53.340;6.812;2022-12-18T08:37:53;34.63;;;15.98;;
56331;SDS011;42237;53.340;6.812;2022-12-18T08:40:19;35.13;;;18.05;;
56331;SDS011;42237;53.340;6.812;2022-12-18T08:42:44;39.83;;;17.55;;
56331;SDS011;42237;53.340;6.812;2022-12-18T08:45:30;31.63;;;16.10;;
56331;SDS011;42237;53.340;6.812;2022-12-18T08:47:56;30.05;;;14.18;;
56331;SDS011;42237;53.340;6.812;2022-12-18T08:50:21;31.08;;;14.85;;
56331;SDS011;42237;53.340;6.812;2022-12-18T08:52:47;29.05;;;15.13;;
56331;SDS011;42237;53.340;6.812;2022-12-18T08:55:13;31.88;;;14.60;;
56331;SDS011;42237;53.340;6.812;2022-12-18T08:57:38;27.88;;;14.40;;
56331;SDS011;42237;53.340;6.812;2022-12-18T09:00:04;30.95;;;14.52;;
56331;SDS011;42237;53.340;6.812;2022-12-18T09:02:30;28.27;;;14.23;;
56331;SDS011;42237;53.340;6.812;2022-12-18T09:04:56;32.90;;;15.25;;
56331;SDS011;42237;53.340;6.812;2022-12-18T09:07:21;32.28;;;14.95;;
56331;SDS011;42237;53.340;6.812;2022-12-18T09:09:47;31.38;;;14.10;;
56331;SDS011;42237;53.340;6.812;2022-12-18T09:12:13;31.25;;;15.27;;
56331;SDS011;42237;53.340;6.812;2022-12-18T09:14:38;25.55;;;13.95;;
56331;SDS011;42237;53.340;6.812;2022-12-18T09:17:04;25.33;;;13.45;;
56331;SDS011;42237;53.340;6.812;2022-12-18T09:19:30;28.25;;;14.70;;
56331;SDS011;42237;53.340;6.812;2022-12-18T09:21:55;28.38;;;13.48;;
56331;SDS011;42237;53.340;6.812;2022-12-18T09:24:21;30.55;;;14.05;;
56331;SDS011;42237;53.340;6.812;2022-12-18T09:26:47;26.52;;;13.27;;
56331;SDS011;42237;53.340;6.812;2022-12-18T09:29:12;26.65;;;13.77;;
56331;SDS011;42237;53.340;6.812;2022-12-18T09:31:39;26.42;;;13.10;;
56331;SDS011;42237;53.340;6.812;2022-12-18T09:34:05;26.95;;;13.65;;
56331;SDS011;42237;53.340;6.812;2022-12-18T09:36:31;24.10;;;13.25;;
56331;SDS011;42237;53.340;6.812;2022-12-18T09:38:56;29.85;;;13.23;;
56331;SDS011;42237;53.340;6.812;2022-12-18T09:46:57;34.33;;;14.20;;
56331;SDS011;42237;53.340;6.812;2022-12-18T09:49:29;26.38;;;12.50;;
56331;SDS011;42237;53.340;6.812;2022-12-18T09:51:59;26.20;;;12.65;;
56331;SDS011;42237;53.340;6.812;2022-12-18T09:54:33;22.73;;;11.90;;
56331;SDS011;42237;53.340;6.812;2022-12-18T09:57:09;23.70;;;11.73;;
56331;SDS011;42237;53.340;6.812;2022-12-18T09:59:40;23.80;;;12.40;;
56331;SDS011;42237;53.340;6.812;2022-12-18T10:02:19;23.73;;;11.95;;
56331;SDS011;42237;53.340;6.812;2022-12-18T10:05:02;22.58;;;10.50;;
56331;SDS011;42237;53.340;6.812;2022-12-18T10:10:52;22.08;;;11.00;;
56331;SDS011;42237;53.340;6.812;2022-12-18T10:16:17;22.35;;;11.38;;
56331;SDS011;42237;53.340;6.812;2022-12-18T10:27:30;20.88;;;11.45;;
56331;SDS011;42237;53.340;6.812;2022-12-18T10:29:56;20.67;;;11.75;;
56331;SDS011;42237;53.340;6.812;2022-12-18T10:32:24;18.30;;;11.13;;
56331;SDS011;42237;53.340;6.812;2022-12-18T10:34:52;20.27;;;10.27;;
56331;SDS011;42237;53.340;6.812;2022-12-18T10:37:22;18.23;;;9.85;;
56331;SDS011;42237;53.340;6.812;2022-12-18T10:40:32;18.42;;;8.73;;
56331;SDS011;42237;53.340;6.812;2022-12-18T10:42:40;19.48;;;9.77;;
56331;SDS011;42237;53.340;6.812;2022-12-18T10:45:14;15.68;;;8.75;;
56331;SDS011;42237;53.340;6.812;2022-12-18T10:47:44;14.35;;;9.02;;
56331;SDS011;42237;53.340;6.812;2022-12-18T10:52:57;16.67;;;8.95;;
56331;SDS011;42237;53.340;6.812;2022-12-18T10:55:35;15.77;;;8.97;;
56331;SDS011;42237;53.340;6.812;2022-12-18T10:58:13;16.60;;;9.82;;
56331;SDS011;42237;53.340;6.812;2022-12-18T11:03:38;15.07;;;8.23;;
56331;SDS011;42237;53.340;6.812;2022-12-18T11:08:37;12.52;;;7.50;;
56331;SDS011;42237;53.340;6.812;2022-12-18T11:11:04;11.73;;;7.43;;
56331;SDS011;42237;53.340;6.812;2022-12-18T11:13:39;15.35;;;7.80;;
56331;SDS011;42237;53.340;6.812;2022-12-18T11:16:05;14.48;;;8.02;;
56331;SDS011;42237;53.340;6.812;2022-12-18T11:18:32;11.15;;;6.88;;
56331;SDS011;42237;53.340;6.812;2022-12-18T11:21:06;14.88;;;7.97;;
56331;SDS011;42237;53.340;6.812;2022-12-18T11:23:34;12.45;;;7.18;;
56331;SDS011;42237;53.340;6.812;2022-12-18T11:26:02;13.38;;;7.57;;
56331;SDS011;42237;53.340;6.812;2022-12-18T11:34:05;16.10;;;8.40;;
56331;SDS011;42237;53.340;6.812;2022-12-18T11:36:46;14.32;;;7.00;;
56331;SDS011;42237;53.340;6.812;2022-12-18T11:42:41;16.45;;;7.90;;
56331;SDS011;42237;53.340;6.812;2022-12-18T11:45:02;13.88;;;8.15;;
56331;SDS011;42237;53.340;6.812;2022-12-18T11:50:51;15.02;;;7.60;;
56331;SDS011;42237;53.340;6.812;2022-12-18T11:53:21;13.73;;;7.78;;
56331;SDS011;42237;53.340;6.812;2022-12-18T12:01:31;15.48;;;7.78;;
56331;SDS011;42237;53.340;6.812;2022-12-18T12:03:49;12.90;;;7.38;;
56331;SDS011;42237;53.340;6.812;2022-12-18T12:09:27;14.35;;;7.32;;
56331;SDS011;42237;53.340;6.812;2022-12-18T12:12:09;14.20;;;7.35;;
56331;SDS011;42237;53.340;6.812;2022-12-18T12:14:45;11.88;;;6.25;;
56331;SDS011;42237;53.340;6.812;2022-12-18T12:17:42;12.15;;;7.20;;
56331;SDS011;42237;53.340;6.812;2022-12-18T12:23:12;15.57;;;7.55;;
56331;SDS011;42237;53.340;6.812;2022-12-18T12:25:49;12.30;;;6.97;;
56331;SDS011;42237;53.340;6.812;2022-12-18T12:36:58;12.90;;;6.75;;
56331;SDS011;42237;53.340;6.812;2022-12-18T12:39:42;10.73;;;6.38;;
56331;SDS011;42237;53.340;6.812;2022-12-18T12:42:16;10.68;;;6.55;;
56331;SDS011;42237;53.340;6.812;2022-12-18T12:45:13;12.18;;;6.65;;
56331;SDS011;42237;53.340;6.812;2022-12-18T12:47:44;12.75;;;6.57;;
56331;SDS011;42237;53.340;6.812;2022-12-18T12:50:13;12.57;;;6.85;;
56331;SDS011;42237;53.340;6.812;2022-12-18T12:52:43;11.52;;;6.82;;
56331;SDS011;42237;53.340;6.812;2022-12-18T12:55:25;12.75;;;7.35;;
56331;SDS011;42237;53.340;6.812;2022-12-18T13:00:50;11.48;;;6.50;;
56331;SDS011;42237;53.340;6.812;2022-12-18T13:06:40;12.95;;;6.80;;
56331;SDS011;42237;53.340;6.812;2022-12-18T13:09:10;11.43;;;6.10;;
56331;SDS011;42237;53.340;6.812;2022-12-18T13:11:46;13.85;;;6.30;;
56331;SDS011;42237;53.340;6.812;2022-12-18T13:19:39;11.57;;;7.22;;
56331;SDS011;42237;53.340;6.812;2022-12-18T13:22:12;13.65;;;6.78;;
56331;SDS011;42237;53.340;6.812;2022-12-18T13:25:26;10.77;;;6.50;;
56331;SDS011;42237;53.340;6.812;2022-12-18T13:38:34;12.82;;;6.35;;
56331;SDS011;42237;53.340;6.812;2022-12-18T13:40:57;13.23;;;7.03;;
56331;SDS011;42237;53.340;6.812;2022-12-18T13:48:57;11.88;;;6.70;;
56331;SDS011;42237;53.340;6.812;2022-12-18T13:51:25;13.60;;;7.20;;
56331;SDS011;42237;53.340;6.812;2022-12-18T13:56:31;10.63;;;7.03;;
56331;SDS011;42237;53.340;6.812;2022-12-18T14:01:56;13.63;;;7.18;;
56331;SDS011;42237;53.340;6.812;2022-12-18T14:07:21;11.95;;;7.00;;
56331;SDS011;42237;53.340;6.812;2022-12-18T14:09:55;13.10;;;7.03;;
56331;SDS011;42237;53.340;6.812;2022-12-18T14:12:24;12.85;;;7.15;;
56331;SDS011;42237;53.340;6.812;2022-12-18T14:17:52;13.52;;;7.47;;
56331;SDS011;42237;53.340;6.812;2022-12-18T14:20:31;14.77;;;8.13;;
56331;SDS011;42237;53.340;6.812;2022-12-18T14:22:57;13.18;;;8.25;;
56331;SDS011;42237;53.340;6.812;2022-12-18T14:25:26;11.40;;;7.45;;
56331;SDS011;42237;53.340;6.812;2022-12-18T14:27:57;13.95;;;8.27;;
56331;SDS011;42237;53.340;6.812;2022-12-18T14:30:37;14.43;;;7.90;;
56331;SDS011;42237;53.340;6.812;2022-12-18T14:35:38;12.05;;;7.80;;
56331;SDS011;42237;53.340;6.812;2022-12-18T14:41:10;14.43;;;8.10;;
56331;SDS011;42237;53.340;6.812;2022-12-18T14:43:41;11.98;;;7.63;;
56331;SDS011;42237;53.340;6.812;2022-12-18T14:48:52;13.18;;;8.00;;
56331;SDS011;42237;53.340;6.812;2022-12-18T14:51:19;14.43;;;8.20;;
56331;SDS011;42237;53.340;6.812;2022-12-18T14:54:14;13.93;;;8.50;;
56331;SDS011;42237;53.340;6.812;2022-12-18T14:56:47;14.38;;;7.85;;
56331;SDS011;42237;53.340;6.812;2022-12-18T14:59:17;14.95;;;8.48;;
56331;SDS011;42237;53.340;6.812;2022-12-18T15:02:01;12.93;;;7.97;;
56331;SDS011;42237;53.340;6.812;2022-12-18T15:04:34;12.18;;;7.88;;
56331;SDS011;42237;53.340;6.812;2022-12-18T15:07:18;14.80;;;7.93;;
56331;SDS011;42237;53.340;6.812;2022-12-18T15:13:05;13.07;;;8.02;;
56331;SDS011;42237;53.340;6.812;2022-12-18T15:18:03;14.75;;;7.35;;
56331;SDS011;42237;53.340;6.812;2022-12-18T15:23:21;14.30;;;8.07;;
56331;SDS011;42237;53.340;6.812;2022-12-18T15:25:58;14.93;;;8.40;;
56331;SDS011;42237;53.340;6.812;2022-12-18T15:28:34;14.90;;;7.57;;
56331;SDS011;42237;53.340;6.812;2022-12-18T15:33:35;14.60;;;8.20;;
56331;SDS011;42237;53.340;6.812;2022-12-18T15:36:08;15.40;;;7.75;;
56331;SDS011;42237;53.340;6.812;2022-12-18T15:38:35;17.73;;;7.90;;
56331;SDS011;42237;53.340;6.812;2022-12-18T15:41:01;15.57;;;8.60;;
56331;SDS011;42237;53.340;6.812;2022-12-18T15:43:28;15.15;;;8.75;;
56331;SDS011;42237;53.340;6.812;2022-12-18T15:46:04;14.75;;;7.68;;
56331;SDS011;42237;53.340;6.812;2022-12-18T15:48:33;12.40;;;7.82;;
56331;SDS011;42237;53.340;6.812;2022-12-18T15:51:00;14.85;;;8.57;;
56331;SDS011;42237;53.340;6.812;2022-12-18T15:53:30;14.73;;;8.10;;
56331;SDS011;42237;53.340;6.812;2022-12-18T15:55:58;15.02;;;8.02;;
56331;SDS011;42237;53.340;6.812;2022-12-18T15:58:42;12.88;;;7.95;;
56331;SDS011;42237;53.340;6.812;2022-12-18T16:01:08;15.10;;;8.10;;
56331;SDS011;42237;53.340;6.812;2022-12-18T16:03:35;13.18;;;8.23;;
56331;SDS011;42237;53.340;6.812;2022-12-18T16:06:00;16.00;;;8.68;;
56331;SDS011;42237;53.340;6.812;2022-12-18T16:08:28;13.85;;;7.72;;
56331;SDS011;42237;53.340;6.812;2022-12-18T16:10:55;12.27;;;8.10;;
56331;SDS011;42237;53.340;6.812;2022-12-18T16:13:21;16.13;;;8.45;;
56331;SDS011;42237;53.340;6.812;2022-12-18T16:15:47;11.63;;;7.03;;
56331;SDS011;42237;53.340;6.812;2022-12-18T16:18:13;14.15;;;7.70;;
56331;SDS011;42237;53.340;6.812;2022-12-18T16:20:39;12.45;;;7.82;;
56331;SDS011;42237;53.340;6.812;2022-12-18T16:23:05;14.20;;;7.70;;
56331;SDS011;42237;53.340;6.812;2022-12-18T16:25:30;14.63;;;8.23;;
56331;SDS011;42237;53.340;6.812;2022-12-18T16:27:56;13.40;;;7.22;;
56331;SDS011;42237;53.340;6.812;2022-12-18T16:30:23;13.43;;;7.30;;
56331;SDS011;42237;53.340;6.812;2022-12-18T16:32:55;11.55;;;7.47;;
56331;SDS011;42237;53.340;6.812;2022-12-18T16:35:22;12.52;;;7.18;;
56331;SDS011;42237;53.340;6.812;2022-12-18T16:37:48;12.13;;;7.05;;
56331;SDS011;42237;53.340;6.812;2022-12-18T16:40:14;13.43;;;7.78;;
56331;SDS011;42237;53.340;6.812;2022-12-18T16:42:41;13.52;;;7.70;;
56331;SDS011;42237;53.340;6.812;2022-12-18T16:45:10;11.75;;;7.40;;
56331;SDS011;42237;53.340;6.812;2022-12-18T16:47:40;13.65;;;7.07;;
56331;SDS011;42237;53.340;6.812;2022-12-18T16:50:06;15.55;;;10.02;;
56331;SDS011;42237;53.340;6.812;2022-12-18T16:52:33;11.95;;;7.07;;
56331;SDS011;42237;53.340;6.812;2022-12-18T16:54:59;12.80;;;7.55;;
56331;SDS011;42237;53.340;6.812;2022-12-18T16:57:25;13.05;;;7.57;;
56331;SDS011;42237;53.340;6.812;2022-12-18T16:59:51;13.48;;;8.45;;
56331;SDS011;42237;53.340;6.812;2022-12-18T17:02:18;13.13;;;7.72;;